sensor_id;sensor_type;location;lat;lon;timestamp;pressure;altitude;pressure_sealevel;temperature;humidity
818;BME280;391;51.052;6.954;2023-08-20T00:00:15;101195.44;;;21.99;100.00
818;BME280;391;51.052;6.954;2023-08-20T00:02:22;101195.53;;;21.92;100.00
818;BME280;391;51.052;6.954;2023-08-20T00:04:26;101194.72;;;21.82;100.00
818;BME280;391;51.052;6.954;2023-08-20T00:06:30;101204.41;;;21.86;100.00
818;BME280;391;51.052;6.954;2023-08-20T00:08:34;101203.63;;;21.74;100.00
818;BME280;391;51.052;6.954;2023-08-20T00:10:38;101201.94;;;21.68;100.00
818;BME280;391;51.052;6.954;2023-08-20T00:12:41;101210.81;;;21.64;100.00
818;BME280;391;51.052;6.954;2023-08-20T00:14:52;101204.50;;;21.77;100.00
818;BME280;391;51.052;6.954;2023-08-20T00:16:58;101210.94;;;21.50;100.00
818;BME280;391;51.052;6.954;2023-08-20T00:19:02;101206.75;;;21.19;100.00
818;BME280;391;51.052;6.954;2023-08-20T00:21:07;101202.41;;;21.00;100.00
818;BME280;391;51.052;6.954;2023-08-20T00:23:11;101178.72;;;20.76;100.00
818;BME280;391;51.052;6.954;2023-08-20T00:25:15;101213.78;;;21.25;100.00
818;BME280;391;51.052;6.954;2023-08-20T00:27:19;101216.34;;;21.35;100.00
818;BME280;391;51.052;6.954;2023-08-20T00:29:23;101211.03;;;21.40;100.00
818;BME280;391;51.052;6.954;2023-08-20T00:31:26;101222.38;;;21.54;100.00
818;BME280;391;51.052;6.954;2023-08-20T00:33:32;101223.28;;;21.56;100.00
818;BME280;391;51.052;6.954;2023-08-20T00:35:35;101225.97;;;21.50;100.00
818;BME280;391;51.052;6.954;2023-08-20T00:37:39;101221.59;;;21.46;100.00
818;BME280;391;51.052;6.954;2023-08-20T00:39:45;101217.28;;;21.31;100.00
818;BME280;391;51.052;6.954;2023-08-20T00:41:49;101217.97;;;21.56;100.00
818;BME280;391;51.052;6.954;2023-08-20T00:43:52;101220.56;;;21.60;100.00
818;BME280;391;51.052;6.954;2023-08-20T00:45:58;101226.75;;;21.61;100.00
818;BME280;391;51.052;6.954;2023-08-20T00:48:03;101224.22;;;21.49;100.00
818;BME280;391;51.052;6.954;2023-08-20T00:50:09;101209.38;;;21.24;100.00
818;BME280;391;51.052;6.954;2023-08-20T00:52:14;101186.56;;;20.92;100.00
818;BME280;391;51.052;6.954;2023-08-20T00:54:19;101207.75;;;20.95;100.00
818;BME280;391;51.052;6.954;2023-08-20T00:56:23;101209.41;;;21.21;100.00
818;BME280;391;51.052;6.954;2023-08-20T00:58:26;101203.09;;;21.35;100.00
818;BME280;391;51.052;6.954;2023-08-20T01:00:32;101204.97;;;21.21;100.00
818;BME280;391;51.052;6.954;2023-08-20T01:02:36;101203.25;;;21.14;100.00
818;BME280;391;51.052;6.954;2023-08-20T01:04:40;101209.41;;;21.21;100.00
818;BME280;391;51.052;6.954;2023-08-20T01:06:53;101203.22;;;21.19;100.00
818;BME280;391;51.052;6.954;2023-08-20T01:09:02;101200.44;;;21.37;100.00
818;BME280;391;51.052;6.954;2023-08-20T01:11:15;101194.31;;;21.27;100.00
818;BME280;391;51.052;6.954;2023-08-20T01:13:19;101185.41;;;21.36;100.00
818;BME280;391;51.052;6.954;2023-08-20T01:15:23;101178.50;;;21.15;100.00
818;BME280;391;51.052;6.954;2023-08-20T01:17:27;101168.91;;;20.87;100.00
818;BME280;391;51.052;6.954;2023-08-20T01:19:33;101174.38;;;20.59;100.00
818;BME280;391;51.052;6.954;2023-08-20T01:21:38;101165.50;;;20.68;100.00
818;BME280;391;51.052;6.954;2023-08-20T01:24:01;101175.25;;;20.63;100.00
818;BME280;391;51.052;6.954;2023-08-20T01:26:20;101185.03;;;20.47;100.00
818;BME280;391;51.052;6.954;2023-08-20T01:28:29;101178.88;;;20.48;100.00
818;BME280;391;51.052;6.954;2023-08-20T01:30:34;101172.72;;;20.36;100.00
818;BME280;391;51.052;6.954;2023-08-20T01:32:38;101174.50;;;20.31;100.00
818;BME280;391;51.052;6.954;2023-08-20T01:34:46;101181.53;;;20.44;100.00
818;BME280;391;51.052;6.954;2023-08-20T01:36:50;101182.25;;;20.72;100.00
818;BME280;391;51.052;6.954;2023-08-20T01:38:54;101179.53;;;20.88;100.00
818;BME280;391;51.052;6.954;2023-08-20T01:40:58;101182.19;;;20.85;100.00
818;BME280;391;51.052;6.954;2023-08-20T01:43:02;101191.88;;;20.88;100.00
818;BME280;391;51.052;6.954;2023-08-20T01:45:08;101188.34;;;20.92;100.00
818;BME280;391;51.052;6.954;2023-08-20T01:47:12;101191.03;;;20.86;100.00
818;BME280;391;51.052;6.954;2023-08-20T01:49:15;101203.41;;;20.85;100.00
818;BME280;391;51.052;6.954;2023-08-20T01:51:19;101199.00;;;20.83;100.00
818;BME280;391;51.052;6.954;2023-08-20T01:53:23;101199.75;;;21.03;100.00
818;BME280;391;51.052;6.954;2023-08-20T01:55:26;101205.03;;;21.04;100.00
818;BME280;391;51.052;6.954;2023-08-20T01:57:34;101210.38;;;20.97;100.00
818;BME280;391;51.052;6.954;2023-08-20T01:59:38;101210.38;;;20.97;100.00
818;BME280;391;51.052;6.954;2023-08-20T02:01:42;101203.28;;;21.11;100.00
818;BME280;391;51.052;6.954;2023-08-20T02:03:45;101176.94;;;20.79;100.00
818;BME280;391;51.052;6.954;2023-08-20T02:05:49;101209.50;;;20.96;100.00
818;BME280;391;51.052;6.954;2023-08-20T02:07:53;101205.09;;;20.94;100.00
818;BME280;391;51.052;6.954;2023-08-20T02:09:56;101201.69;;;20.72;100.00
818;BME280;391;51.052;6.954;2023-08-20T02:11:59;101210.44;;;20.92;100.00
818;BME280;391;51.052;6.954;2023-08-20T02:14:03;101207.78;;;20.88;100.00
818;BME280;391;51.052;6.954;2023-08-20T02:16:07;101213.19;;;20.73;100.00
818;BME280;391;51.052;6.954;2023-08-20T02:18:12;101223.75;;;20.83;100.00
818;BME280;391;51.052;6.954;2023-08-20T02:20:15;101222.91;;;20.72;100.00
818;BME280;391;51.052;6.954;2023-08-20T02:22:19;101207.81;;;20.86;100.00
818;BME280;391;51.052;6.954;2023-08-20T02:24:23;101221.94;;;20.90;100.00
818;BME280;391;51.052;6.954;2023-08-20T02:26:25;101208.66;;;20.87;100.00
818;BME280;391;51.052;6.954;2023-08-20T02:28:29;101216.56;;;20.97;100.00
818;BME280;391;51.052;6.954;2023-08-20T02:30:31;101214.84;;;20.92;100.00
818;BME280;391;51.052;6.954;2023-08-20T02:32:35;101221.09;;;20.82;100.00
818;BME280;391;51.052;6.954;2023-08-20T02:34:39;101224.59;;;20.87;100.00
818;BME280;391;51.052;6.954;2023-08-20T02:36:43;101226.41;;;20.77;100.00
818;BME280;391;51.052;6.954;2023-08-20T02:38:46;101240.59;;;20.66;100.00
818;BME280;391;51.052;6.954;2023-08-20T02:40:50;101228.25;;;20.63;100.00
818;BME280;391;51.052;6.954;2023-08-20T02:42:53;101239.69;;;20.71;100.00
818;BME280;391;51.052;6.954;2023-08-20T02:44:58;101231.84;;;20.42;100.00
818;BME280;391;51.052;6.954;2023-08-20T02:47:01;101248.69;;;20.32;100.00
818;BME280;391;51.052;6.954;2023-08-20T02:49:06;101253.97;;;20.14;100.00
818;BME280;391;51.052;6.954;2023-08-20T02:51:10;101244.25;;;20.15;100.00
818;BME280;391;51.052;6.954;2023-08-20T02:53:14;101257.47;;;20.40;100.00
818;BME280;391;51.052;6.954;2023-08-20T02:55:17;101252.09;;;20.66;100.00
818;BME280;391;51.052;6.954;2023-08-20T02:57:21;101258.22;;;20.76;100.00
818;BME280;391;51.052;6.954;2023-08-20T02:59:24;101244.09;;;20.75;100.00
818;BME280;391;51.052;6.954;2023-08-20T03:01:28;101242.31;;;20.76;100.00
818;BME280;391;51.052;6.954;2023-08-20T03:03:31;101241.38;;;20.84;100.00
818;BME280;391;51.052;6.954;2023-08-20T03:05:35;101248.47;;;20.85;100.00
818;BME280;391;51.052;6.954;2023-08-20T03:07:40;101230.03;;;20.59;100.00
818;BME280;391;51.052;6.954;2023-08-20T03:09:43;101244.06;;;20.83;100.00
818;BME280;391;51.052;6.954;2023-08-20T03:11:47;101235.34;;;20.58;100.00
818;BME280;391;51.052;6.954;2023-08-20T03:13:50;101245.94;;;20.52;100.00
818;BME280;391;51.052;6.954;2023-08-20T03:15:53;101239.78;;;20.54;100.00
818;BME280;391;51.052;6.954;2023-08-20T03:17:57;101246.00;;;20.40;100.00
818;BME280;391;51.052;6.954;2023-08-20T03:20:01;101256.63;;;20.32;100.00
818;BME280;391;51.052;6.954;2023-08-20T03:22:08;101252.19;;;20.42;100.00
818;BME280;391;51.052;6.954;2023-08-20T03:24:12;101251.28;;;20.46;100.00
818;BME280;391;51.052;6.954;2023-08-20T03:26:16;101251.19;;;20.69;100.00
818;BME280;391;51.052;6.954;2023-08-20T03:28:20;101254.81;;;20.48;100.00
818;BME280;391;51.052;6.954;2023-08-20T03:30:25;101238.09;;;20.31;100.00
818;BME280;391;51.052;6.954;2023-08-20T03:32:28;101247.75;;;20.44;100.00
818;BME280;391;51.052;6.954;2023-08-20T03:34:32;101245.97;;;20.58;100.00
818;BME280;391;51.052;6.954;2023-08-20T03:36:35;101253.97;;;20.35;100.00
818;BME280;391;51.052;6.954;2023-08-20T03:38:39;101250.44;;;20.23;100.00
818;BME280;391;51.052;6.954;2023-08-20T03:40:43;101261.88;;;20.23;100.00
818;BME280;391;51.052;6.954;2023-08-20T03:42:48;101258.41;;;20.06;100.00
818;BME280;391;51.052;6.954;2023-08-20T03:44:52;101262.78;;;20.21;100.00
818;BME280;391;51.052;6.954;2023-08-20T03:46:56;101261.03;;;20.21;100.00
818;BME280;391;51.052;6.954;2023-08-20T03:49:01;101268.06;;;20.45;100.00
818;BME280;391;51.052;6.954;2023-08-20T03:51:05;101268.03;;;20.52;100.00
818;BME280;391;51.052;6.954;2023-08-20T03:53:08;101271.56;;;20.56;100.00
818;BME280;391;51.052;6.954;2023-08-20T03:55:12;101268.00;;;20.62;100.00
818;BME280;391;51.052;6.954;2023-08-20T03:57:16;101267.06;;;20.75;100.00
818;BME280;391;51.052;6.954;2023-08-20T03:59:20;101268.88;;;20.67;100.00
818;BME280;391;51.052;6.954;2023-08-20T04:01:24;101268.88;;;20.70;100.00
818;BME280;391;51.052;6.954;2023-08-20T04:03:28;101272.44;;;20.61;100.00
818;BME280;391;51.052;6.954;2023-08-20T04:05:35;101270.69;;;20.46;100.00
818;BME280;391;51.052;6.954;2023-08-20T04:07:41;101269.75;;;20.66;100.00
818;BME280;391;51.052;6.954;2023-08-20T04:09:44;101278.59;;;20.65;100.00
818;BME280;391;51.052;6.954;2023-08-20T04:11:48;101282.97;;;20.72;100.00
818;BME280;391;51.052;6.954;2023-08-20T04:13:53;101275.94;;;20.66;100.00
818;BME280;391;51.052;6.954;2023-08-20T04:15:58;101282.91;;;20.87;100.00
818;BME280;391;51.052;6.954;2023-08-20T04:18:05;101284.75;;;20.70;100.00
818;BME280;391;51.052;6.954;2023-08-20T04:20:12;101296.25;;;20.70;100.00
818;BME280;391;51.052;6.954;2023-08-20T04:22:16;101297.16;;;20.58;100.00
818;BME280;391;51.052;6.954;2023-08-20T04:24:19;101297.13;;;20.69;100.00
818;BME280;391;51.052;6.954;2023-08-20T04:26:23;101293.56;;;20.76;100.00
818;BME280;391;51.052;6.954;2023-08-20T04:28:27;101284.81;;;20.57;100.00
818;BME280;391;51.052;6.954;2023-08-20T04:30:32;101283.88;;;20.71;100.00
818;BME280;391;51.052;6.954;2023-08-20T04:32:35;101289.13;;;20.83;100.00
818;BME280;391;51.052;6.954;2023-08-20T04:34:39;101294.38;;;20.93;100.00
818;BME280;391;51.052;6.954;2023-08-20T04:36:42;101283.78;;;20.90;100.00
818;BME280;391;51.052;6.954;2023-08-20T04:38:45;101285.47;;;21.14;100.00
818;BME280;391;51.052;6.954;2023-08-20T04:40:49;101288.19;;;20.99;100.00
818;BME280;391;51.052;6.954;2023-08-20T04:42:52;101299.75;;;20.72;100.00
818;BME280;391;51.052;6.954;2023-08-20T04:44:56;101282.19;;;20.44;100.00
818;BME280;391;51.052;6.954;2023-08-20T04:47:02;101300.59;;;20.86;100.00
818;BME280;391;51.052;6.954;2023-08-20T04:49:08;101310.28;;;20.93;100.00
818;BME280;391;51.052;6.954;2023-08-20T04:51:13;101307.69;;;20.80;100.00
818;BME280;391;51.052;6.954;2023-08-20T04:53:16;101305.94;;;20.76;100.00
818;BME280;391;51.052;6.954;2023-08-20T04:55:22;101296.13;;;20.94;100.00
818;BME280;391;51.052;6.954;2023-08-20T04:57:25;101298.81;;;20.84;100.00
818;BME280;391;51.052;6.954;2023-08-20T04:59:30;101306.75;;;20.99;100.00
818;BME280;391;51.052;6.954;2023-08-20T05:01:33;101305.03;;;20.81;100.00
818;BME280;391;51.052;6.954;2023-08-20T05:03:38;101310.34;;;20.81;100.00
818;BME280;391;51.052;6.954;2023-08-20T05:05:42;101306.91;;;20.46;100.00
818;BME280;391;51.052;6.954;2023-08-20T05:07:45;101306.06;;;20.29;100.00
818;BME280;391;51.052;6.954;2023-08-20T05:09:49;101274.28;;;19.98;100.00
818;BME280;391;51.052;6.954;2023-08-20T05:11:53;101311.38;;;20.20;100.00
818;BME280;391;51.052;6.954;2023-08-20T05:13:57;101306.91;;;20.53;100.00
818;BME280;391;51.052;6.954;2023-08-20T05:16:00;101313.03;;;20.69;100.00
818;BME280;391;51.052;6.954;2023-08-20T05:18:04;101305.03;;;20.83;100.00
818;BME280;391;51.052;6.954;2023-08-20T05:20:10;101304.97;;;20.95;100.00
818;BME280;391;51.052;6.954;2023-08-20T05:22:14;101315.69;;;20.65;100.00
818;BME280;391;51.052;6.954;2023-08-20T05:24:17;101311.34;;;20.47;100.00
818;BME280;391;51.052;6.954;2023-08-20T05:26:22;101316.63;;;20.45;100.00
818;BME280;391;51.052;6.954;2023-08-20T05:28:25;101317.53;;;20.40;100.00
818;BME280;391;51.052;6.954;2023-08-20T05:30:30;101310.47;;;20.39;100.00
818;BME280;391;51.052;6.954;2023-08-20T05:32:34;101310.47;;;20.37;100.00
818;BME280;391;51.052;6.954;2023-08-20T05:34:38;101320.19;;;20.41;100.00
818;BME280;391;51.052;6.954;2023-08-20T05:36:43;101323.72;;;20.34;100.00
818;BME280;391;51.052;6.954;2023-08-20T05:38:46;101316.66;;;20.35;100.00
818;BME280;391;51.052;6.954;2023-08-20T05:40:50;101309.59;;;20.32;100.00
818;BME280;391;51.052;6.954;2023-08-20T05:42:53;101320.19;;;20.28;100.00
818;BME280;391;51.052;6.954;2023-08-20T05:44:57;101321.97;;;20.27;100.00
818;BME280;391;51.052;6.954;2023-08-20T05:47:03;101322.81;;;20.22;100.00
818;BME280;391;51.052;6.954;2023-08-20T05:49:08;101323.72;;;20.28;100.00
818;BME280;391;51.052;6.954;2023-08-20T05:51:12;101331.69;;;20.28;100.00
818;BME280;391;51.052;6.954;2023-08-20T05:53:17;101321.94;;;20.26;100.00
818;BME280;391;51.052;6.954;2023-08-20T05:55:21;101322.81;;;20.22;100.00
818;BME280;391;51.052;6.954;2023-08-20T05:57:25;101322.81;;;20.22;100.00
818;BME280;391;51.052;6.954;2023-08-20T05:59:29;101324.59;;;20.30;100.00
818;BME280;391;51.052;6.954;2023-08-20T06:01:32;101326.38;;;20.27;100.00
818;BME280;391;51.052;6.954;2023-08-20T06:03:36;101328.13;;;20.26;100.00
818;BME280;391;51.052;6.954;2023-08-20T06:05:39;101329.00;;;20.22;100.00
818;BME280;391;51.052;6.954;2023-08-20T06:07:42;101325.50;;;20.31;100.00
818;BME280;391;51.052;6.954;2023-08-20T06:09:47;101323.69;;;20.57;100.00
818;BME280;391;51.052;6.954;2023-08-20T06:11:52;101310.47;;;20.45;100.00
818;BME280;391;51.052;6.954;2023-08-20T06:13:55;101313.94;;;20.64;100.00
818;BME280;391;51.052;6.954;2023-08-20T06:16:13;101326.31;;;20.57;100.00
818;BME280;391;51.052;6.954;2023-08-20T06:18:16;101334.19;;;20.83;100.00
818;BME280;391;51.052;6.954;2023-08-20T06:20:20;101341.22;;;20.94;100.00
818;BME280;391;51.052;6.954;2023-08-20T06:22:23;101345.66;;;20.92;100.00
818;BME280;391;51.052;6.954;2023-08-20T06:24:26;101338.50;;;21.14;100.00
818;BME280;391;51.052;6.954;2023-08-20T06:26:31;101344.66;;;21.22;100.00
818;BME280;391;51.052;6.954;2023-08-20T06:28:35;101339.34;;;21.24;100.00
818;BME280;391;51.052;6.954;2023-08-20T06:30:38;101334.91;;;21.27;100.00
818;BME280;391;51.052;6.954;2023-08-20T06:32:42;101331.47;;;21.05;100.00
818;BME280;391;51.052;6.954;2023-08-20T06:34:46;101330.56;;;21.11;100.00
818;BME280;391;51.052;6.954;2023-08-20T06:36:49;101333.16;;;21.25;100.00
818;BME280;391;51.052;6.954;2023-08-20T06:38:53;101336.63;;;21.37;100.00
818;BME280;391;51.052;6.954;2023-08-20T06:40:56;101335.75;;;21.32;100.00
818;BME280;391;51.052;6.954;2023-08-20T06:43:01;101338.50;;;21.06;100.00
818;BME280;391;51.052;6.954;2023-08-20T06:45:05;101333.19;;;21.19;100.00
818;BME280;391;51.052;6.954;2023-08-20T06:47:10;101336.66;;;21.33;100.00
818;BME280;391;51.052;6.954;2023-08-20T06:49:14;101333.78;;;21.64;100.00
818;BME280;391;51.052;6.954;2023-08-20T06:51:20;101345.16;;;21.83;100.00
818;BME280;391;51.052;6.954;2023-08-20T06:53:24;101343.41;;;21.82;100.00
818;BME280;391;51.052;6.954;2023-08-20T06:55:27;101344.44;;;21.58;100.00
818;BME280;391;51.052;6.954;2023-08-20T06:57:31;101345.25;;;21.73;100.00
818;BME280;391;51.052;6.954;2023-08-20T06:59:36;101350.59;;;21.68;100.00
818;BME280;391;51.052;6.954;2023-08-20T07:01:39;101350.53;;;21.76;100.00
818;BME280;391;51.052;6.954;2023-08-20T07:03:43;101272.16;;;21.23;100.00
818;BME280;391;51.052;6.954;2023-08-20T07:05:47;101349.56;;;21.90;100.00
818;BME280;391;51.052;6.954;2023-08-20T07:07:50;101345.22;;;21.76;100.00
818;BME280;391;51.052;6.954;2023-08-20T07:09:54;101350.44;;;21.89;100.00
818;BME280;391;51.052;6.954;2023-08-20T07:11:57;101351.28;;;21.96;100.00
818;BME280;391;51.052;6.954;2023-08-20T07:14:01;101356.53;;;22.06;100.00
818;BME280;391;51.052;6.954;2023-08-20T07:16:06;101356.47;;;22.12;100.00
818;BME280;391;51.052;6.954;2023-08-20T07:18:09;101354.75;;;22.07;100.00
818;BME280;391;51.052;6.954;2023-08-20T07:20:15;101354.75;;;22.05;100.00
818;BME280;391;51.052;6.954;2023-08-20T07:22:19;101357.44;;;22.02;100.00
818;BME280;391;51.052;6.954;2023-08-20T07:24:22;101357.31;;;22.14;100.00
818;BME280;391;51.052;6.954;2023-08-20T07:26:27;101340.59;;;22.06;100.00
818;BME280;391;51.052;6.954;2023-08-20T07:28:31;101352.13;;;22.04;100.00
818;BME280;391;51.052;6.954;2023-08-20T07:30:48;101361.84;;;22.06;100.00
818;BME280;391;51.052;6.954;2023-08-20T07:32:53;101358.34;;;22.01;100.00
818;BME280;391;51.052;6.954;2023-08-20T07:34:56;101353.88;;;22.02;100.00
818;BME280;391;51.052;6.954;2023-08-20T07:37:00;101358.25;;;22.12;100.00
818;BME280;391;51.052;6.954;2023-08-20T07:39:04;101358.28;;;22.07;100.00
818;BME280;391;51.052;6.954;2023-08-20T07:41:08;101358.22;;;22.15;100.00
818;BME280;391;51.052;6.954;2023-08-20T07:43:10;101354.69;;;22.11;100.00
818;BME280;391;51.052;6.954;2023-08-20T07:45:14;101358.28;;;22.07;100.00
818;BME280;391;51.052;6.954;2023-08-20T07:47:17;101359.06;;;22.20;100.00
818;BME280;391;51.052;6.954;2023-08-20T07:49:22;101359.06;;;22.20;100.00
818;BME280;391;51.052;6.954;2023-08-20T07:51:26;101357.31;;;22.18;100.00
818;BME280;391;51.052;6.954;2023-08-20T07:53:29;101360.72;;;22.32;100.00
818;BME280;391;51.052;6.954;2023-08-20T07:55:33;101362.47;;;22.34;100.00
818;BME280;391;51.052;6.954;2023-08-20T07:57:36;101361.53;;;22.38;100.00
818;BME280;391;51.052;6.954;2023-08-20T07:59:40;101365.91;;;22.44;100.00
818;BME280;391;51.052;6.954;2023-08-20T08:01:43;101361.44;;;22.47;100.00
818;BME280;391;51.052;6.954;2023-08-20T08:03:45;101359.75;;;22.42;100.00
818;BME280;391;51.052;6.954;2023-08-20T08:05:50;101367.69;;;22.45;100.00
818;BME280;391;51.052;6.954;2023-08-20T08:07:53;101373.69;;;22.63;100.00
818;BME280;391;51.052;6.954;2023-08-20T08:09:56;101375.66;;;22.43;100.00
818;BME280;391;51.052;6.954;2023-08-20T08:12:00;101376.50;;;22.47;100.00
818;BME280;391;51.052;6.954;2023-08-20T08:14:04;101377.31;;;22.58;100.00
818;BME280;391;51.052;6.954;2023-08-20T08:16:07;101386.16;;;22.58;100.00
818;BME280;391;51.052;6.954;2023-08-20T08:18:11;101381.81;;;22.50;100.00
818;BME280;391;51.052;6.954;2023-08-20T08:20:15;101385.28;;;22.58;100.00
818;BME280;391;51.052;6.954;2023-08-20T08:22:21;101387.00;;;22.66;100.00
818;BME280;391;51.052;6.954;2023-08-20T08:24:24;101377.13;;;22.78;100.00
818;BME280;391;51.052;6.954;2023-08-20T08:26:28;101378.06;;;22.72;100.00
818;BME280;391;51.052;6.954;2023-08-20T08:28:31;101384.31;;;22.65;100.00
818;BME280;391;51.052;6.954;2023-08-20T08:30:34;101301.28;;;22.40;100.00
818;BME280;391;51.052;6.954;2023-08-20T08:32:38;101386.78;;;22.85;100.00
818;BME280;391;51.052;6.954;2023-08-20T08:34:41;101386.78;;;22.88;100.00
818;BME280;391;51.052;6.954;2023-08-20T08:36:45;101382.97;;;23.10;100.00
818;BME280;391;51.052;6.954;2023-08-20T08:38:50;101388.19;;;23.17;100.00
818;BME280;391;51.052;6.954;2023-08-20T08:40:54;101376.28;;;23.47;100.00
818;BME280;391;51.052;6.954;2023-08-20T08:42:58;101382.91;;;23.14;100.00
818;BME280;391;51.052;6.954;2023-08-20T08:45:03;101380.16;;;23.20;100.00
818;BME280;391;51.052;6.954;2023-08-20T08:47:07;101386.41;;;23.19;100.00
818;BME280;391;51.052;6.954;2023-08-20T08:49:11;101381.88;;;23.25;100.00
818;BME280;391;51.052;6.954;2023-08-20T08:51:14;101375.56;;;23.33;100.00
818;BME280;391;51.052;6.954;2023-08-20T08:53:18;101379.00;;;23.43;100.00
818;BME280;391;51.052;6.954;2023-08-20T08:55:23;101361.41;;;23.30;100.00
818;BME280;391;51.052;6.954;2023-08-20T08:57:27;101378.91;;;23.49;99.94
818;BME280;391;51.052;6.954;2023-08-20T08:59:31;101372.69;;;23.50;97.97
818;BME280;391;51.052;6.954;2023-08-20T09:01:38;101372.75;;;23.48;96.12
818;BME280;391;51.052;6.954;2023-08-20T09:03:42;101371.63;;;23.61;96.53
818;BME280;391;51.052;6.954;2023-08-20T09:05:46;101376.75;;;23.75;96.44
818;BME280;391;51.052;6.954;2023-08-20T09:07:55;101374.06;;;23.78;96.15
818;BME280;391;51.052;6.954;2023-08-20T09:09:58;101373.91;;;23.87;96.47
818;BME280;391;51.052;6.954;2023-08-20T09:12:12;101379.75;;;24.13;96.12
818;BME280;391;51.052;6.954;2023-08-20T09:14:22;101374.47;;;24.07;94.28
818;BME280;391;51.052;6.954;2023-08-20T09:16:29;101352.09;;;24.20;92.04
818;BME280;391;51.052;6.954;2023-08-20T09:18:34;101378.69;;;24.23;91.90
818;BME280;391;51.052;6.954;2023-08-20T09:20:40;101384.53;;;24.45;91.68
818;BME280;391;51.052;6.954;2023-08-20T09:22:48;101387.94;;;24.53;91.02
818;BME280;391;51.052;6.954;2023-08-20T09:24:53;101389.97;;;24.39;91.38
818;BME280;391;51.052;6.954;2023-08-20T09:26:57;101391.97;;;24.25;91.16
818;BME280;391;51.052;6.954;2023-08-20T09:29:03;101388.19;;;24.40;90.50
818;BME280;391;51.052;6.954;2023-08-20T09:31:06;101397.72;;;24.53;90.00
818;BME280;391;51.052;6.954;2023-08-20T09:33:13;101393.28;;;24.52;89.68
818;BME280;391;51.052;6.954;2023-08-20T09:35:18;101388.59;;;24.66;87.90
818;BME280;391;51.052;6.954;2023-08-20T09:37:22;101384.72;;;24.85;89.68
818;BME280;391;51.052;6.954;2023-08-20T09:39:26;101392.72;;;24.84;87.20
818;BME280;391;51.052;6.954;2023-08-20T09:41:29;101397.75;;;24.99;88.04
818;BME280;391;51.052;6.954;2023-08-20T09:43:35;101406.16;;;25.23;85.38
818;BME280;391;51.052;6.954;2023-08-20T09:45:42;101405.63;;;25.05;86.02
818;BME280;391;51.052;6.954;2023-08-20T09:47:49;101399.94;;;25.23;84.79
818;BME280;391;51.052;6.954;2023-08-20T09:49:53;101390.28;;;25.17;86.54
818;BME280;391;51.052;6.954;2023-08-20T09:51:58;101405.28;;;25.23;84.75
818;BME280;391;51.052;6.954;2023-08-20T09:54:07;101404.34;;;25.68;81.95
818;BME280;391;51.052;6.954;2023-08-20T09:56:20;101408.19;;;25.55;81.27
818;BME280;391;51.052;6.954;2023-08-20T09:58:25;101403.06;;;25.85;80.48
818;BME280;391;51.052;6.954;2023-08-20T10:00:30;101409.16;;;25.90;80.46
818;BME280;391;51.052;6.954;2023-08-20T10:02:35;101412.88;;;25.83;79.00
818;BME280;391;51.052;6.954;2023-08-20T10:04:39;101406.38;;;25.94;78.50
818;BME280;391;51.052;6.954;2023-08-20T10:06:43;101419.72;;;25.96;78.83
818;BME280;391;51.052;6.954;2023-08-20T10:08:46;101417.78;;;26.02;77.86
818;BME280;391;51.052;6.954;2023-08-20T10:10:51;101419.03;;;26.24;77.32
818;BME280;391;51.052;6.954;2023-08-20T10:12:56;101421.66;;;26.61;74.46
818;BME280;391;51.052;6.954;2023-08-20T10:15:00;101412.94;;;26.19;74.48
818;BME280;391;51.052;6.954;2023-08-20T10:17:07;101416.81;;;26.05;74.64
818;BME280;391;51.052;6.954;2023-08-20T10:19:12;101415.09;;;26.02;75.97
818;BME280;391;51.052;6.954;2023-08-20T10:21:17;101418.72;;;26.37;77.63
818;BME280;391;51.052;6.954;2023-08-20T10:23:22;101426.69;;;26.73;71.25
818;BME280;391;51.052;6.954;2023-08-20T10:25:26;101432.00;;;26.75;72.73
818;BME280;391;51.052;6.954;2023-08-20T10:27:31;101424.28;;;26.64;71.04
818;BME280;391;51.052;6.954;2023-08-20T10:29:37;101419.97;;;26.93;71.80
818;BME280;391;51.052;6.954;2023-08-20T10:31:46;101415.78;;;27.13;74.01
818;BME280;391;51.052;6.954;2023-08-20T10:33:50;101417.28;;;26.93;70.44
818;BME280;391;51.052;6.954;2023-08-20T10:35:55;101420.97;;;26.53;72.34
818;BME280;391;51.052;6.954;2023-08-20T10:38:05;101418.31;;;26.53;73.47
818;BME280;391;51.052;6.954;2023-08-20T10:40:10;101422.38;;;26.68;73.09
818;BME280;391;51.052;6.954;2023-08-20T10:42:25;101418.19;;;26.58;71.37
818;BME280;391;51.052;6.954;2023-08-20T10:44:58;101416.63;;;26.49;73.00
818;BME280;391;51.052;6.954;2023-08-20T10:47:06;101421.53;;;26.66;73.34
818;BME280;391;51.052;6.954;2023-08-20T10:49:16;101421.59;;;26.64;72.44
818;BME280;391;51.052;6.954;2023-08-20T10:51:26;101422.97;;;26.79;72.18
818;BME280;391;51.052;6.954;2023-08-20T10:53:31;101418.13;;;26.93;71.57
818;BME280;391;51.052;6.954;2023-08-20T10:55:34;101424.69;;;27.15;69.92
818;BME280;391;51.052;6.954;2023-08-20T10:57:37;101423.56;;;27.22;70.22
818;BME280;391;51.052;6.954;2023-08-20T10:59:41;101424.13;;;27.33;69.65
818;BME280;391;51.052;6.954;2023-08-20T11:01:45;101414.16;;;27.39;70.94
818;BME280;391;51.052;6.954;2023-08-20T11:03:50;101428.25;;;27.14;70.09
818;BME280;391;51.052;6.954;2023-08-20T11:05:54;101419.03;;;27.24;70.50
818;BME280;391;51.052;6.954;2023-08-20T11:07:58;101414.22;;;27.37;69.96
818;BME280;391;51.052;6.954;2023-08-20T11:10:05;101417.09;;;27.60;69.31
818;BME280;391;51.052;6.954;2023-08-20T11:12:10;101411.00;;;27.55;70.07
818;BME280;391;51.052;6.954;2023-08-20T11:14:14;101411.38;;;27.43;70.57
818;BME280;391;51.052;6.954;2023-08-20T11:16:19;101409.91;;;27.62;70.24
818;BME280;391;51.052;6.954;2023-08-20T11:18:21;101419.41;;;27.43;68.21
818;BME280;391;51.052;6.954;2023-08-20T11:20:25;101413.22;;;27.40;70.28